createdAt,value
2022-09-11T00:01:49.355Z,100.00
2022-09-11T00:04:16.908Z,100.00
2022-09-11T00:06:44.806Z,100.00
2022-09-11T00:09:12.308Z,100.00
2022-09-11T00:11:41.352Z,100.00
2022-09-11T00:14:11.253Z,100.00
2022-09-11T00:16:39.792Z,100.00
2022-09-11T00:19:08.496Z,100.00
2022-09-11T00:21:36.419Z,100.00
2022-09-11T00:24:04.645Z,100.00
2022-09-11T00:26:32.165Z,100.00
2022-09-11T00:29:01.890Z,100.00
2022-09-11T00:31:32.395Z,100.00
2022-09-11T00:34:00.676Z,100.00
2022-09-11T00:36:31.126Z,100.00
2022-09-11T00:38:59.339Z,100.00
2022-09-11T00:41:28.864Z,100.00
2022-09-11T00:44:01.294Z,100.00
2022-09-11T00:46:35.743Z,100.00
2022-09-11T00:49:04.564Z,100.00
2022-09-11T00:51:34.695Z,100.00
2022-09-11T00:54:03.827Z,100.00
2022-09-11T00:56:35.393Z,100.00
2022-09-11T00:59:03.865Z,100.00
2022-09-11T01:01:31.397Z,100.00
2022-09-11T01:04:01.640Z,100.00
2022-09-11T01:06:29.129Z,100.00
2022-09-11T01:08:59.137Z,100.00
2022-09-11T01:11:41.601Z,100.00
2022-09-11T01:14:12.774Z,100.00
2022-09-11T01:16:43.881Z,100.00
2022-09-11T01:19:20.589Z,100.00
2022-09-11T01:21:56.524Z,100.00
2022-09-11T01:24:32.305Z,100.00
2022-09-11T01:27:20.791Z,100.00
2022-09-11T01:29:52.098Z,100.00
2022-09-11T01:32:22.065Z,100.00
2022-09-11T01:34:52.727Z,100.00
2022-09-11T01:37:24.083Z,100.00
2022-09-11T01:39:57.221Z,100.00
2022-09-11T01:42:25.910Z,100.00
2022-09-11T01:44:57.695Z,100.00
2022-09-11T01:47:26.470Z,100.00
2022-09-11T01:49:57.318Z,100.00
2022-09-11T01:52:30.556Z,100.00
2022-09-11T01:55:02.256Z,100.00
2022-09-11T01:57:34.665Z,100.00
2022-09-11T02:00:07.355Z,100.00
2022-09-11T02:02:45.891Z,100.00
2022-09-11T02:05:17.075Z,100.00
2022-09-11T02:07:48.557Z,100.00
2022-09-11T02:10:18.166Z,100.00
2022-09-11T02:12:52.844Z,100.00
2022-09-11T02:15:26.008Z,100.00
2022-09-11T02:17:55.866Z,100.00
2022-09-11T02:20:28.560Z,100.00
2022-09-11T02:22:56.718Z,100.00
2022-09-11T02:25:24.800Z,100.00
2022-09-11T02:27:56.756Z,100.00
2022-09-11T02:30:25.644Z,100.00
2022-09-11T02:32:55.779Z,100.00
2022-09-11T02:35:25.088Z,100.00
2022-09-11T02:37:57.034Z,100.00
2022-09-11T02:40:32.806Z,100.00
2022-09-11T02:43:10.118Z,100.00
2022-09-11T02:45:48.789Z,100.00
2022-09-11T02:48:25.705Z,100.00
2022-09-11T02:50:59.798Z,100.00
2022-09-11T02:53:30.889Z,100.00
2022-09-11T02:56:02.588Z,100.00
2022-09-11T02:58:35.091Z,100.00
2022-09-11T03:01:04.446Z,100.00
2022-09-11T03:03:38.402Z,100.00
2022-09-11T03:06:06.196Z,100.00
2022-09-11T03:08:34.453Z,100.00
2022-09-11T03:11:02.207Z,100.00
2022-09-11T03:13:32.698Z,100.00
2022-09-11T03:16:01.498Z,100.00
2022-09-11T03:18:30.433Z,100.00
2022-09-11T03:20:57.979Z,100.00
2022-09-11T03:23:26.480Z,100.00
2022-09-11T03:25:54.913Z,100.00
2022-09-11T03:28:23.698Z,100.00
2022-09-11T03:30:52.764Z,100.00
2022-09-11T03:33:20.357Z,100.00
2022-09-11T03:35:49.366Z,100.00
2022-09-11T03:38:17.170Z,100.00
2022-09-11T03:40:44.804Z,100.00
2022-09-11T03:43:13.200Z,100.00
2022-09-11T03:45:40.733Z,100.00
2022-09-11T03:48:10.045Z,100.00
2022-09-11T03:50:37.888Z,100.00
2022-09-11T03:53:06.761Z,100.00
2022-09-11T03:55:35.075Z,100.00
2022-09-11T03:58:02.639Z,100.00
2022-09-11T04:00:30.273Z,100.00
2022-09-11T04:02:58.155Z,100.00
2022-09-11T04:05:32.970Z,100.00
2022-09-11T04:08:02.188Z,100.00
2022-09-11T04:10:32.983Z,100.00
2022-09-11T04:13:01.569Z,100.00
2022-09-11T04:15:29.146Z,100.00
2022-09-11T04:18:00.043Z,100.00
2022-09-11T04:20:29.697Z,100.00
2022-09-11T04:22:57.885Z,100.00
2022-09-11T04:25:25.520Z,100.00
2022-09-11T04:27:54.361Z,100.00
2022-09-11T04:30:22.299Z,100.00
2022-09-11T04:32:52.500Z,100.00
2022-09-11T04:35:21.499Z,100.00
2022-09-11T04:37:54.314Z,100.00
2022-09-11T04:40:21.918Z,100.00
2022-09-11T04:42:49.507Z,100.00
2022-09-11T04:45:18.897Z,100.00
2022-09-11T04:47:46.977Z,100.00
2022-09-11T04:50:14.622Z,100.00
2022-09-11T04:52:45.309Z,100.00
2022-09-11T04:55:12.848Z,100.00
2022-09-11T04:57:40.475Z,100.00
2022-09-11T05:00:10.865Z,100.00
2022-09-11T05:02:40.555Z,100.00
2022-09-11T05:05:09.121Z,100.00
2022-09-11T05:07:36.699Z,100.00
2022-09-11T05:10:06.030Z,100.00
2022-09-11T05:12:33.648Z,100.00
2022-09-11T05:15:01.156Z,100.00
2022-09-11T05:17:30.436Z,100.00
2022-09-11T05:19:59.323Z,100.00
2022-09-11T05:22:27.025Z,100.00
2022-09-11T05:24:57.464Z,100.00
2022-09-11T05:27:25.512Z,100.00
2022-09-11T05:29:53.633Z,100.00
2022-09-11T05:32:21.169Z,100.00
2022-09-11T05:34:49.880Z,100.00
2022-09-11T05:37:21.684Z,100.00
2022-09-11T05:39:49.583Z,100.00
2022-09-11T05:42:17.642Z,100.00
2022-09-11T05:44:52.203Z,100.00
2022-09-11T05:47:19.825Z,100.00
2022-09-11T05:49:50.655Z,100.00
2022-09-11T05:52:18.519Z,100.00
2022-09-11T05:54:47.530Z,100.00
2022-09-11T05:57:15.844Z,100.00
2022-09-11T05:59:44.112Z,100.00
2022-09-11T06:02:12.488Z,100.00
2022-09-11T06:04:44.851Z,100.00
2022-09-11T06:07:13.064Z,100.00
2022-09-11T06:09:42.708Z,100.00
2022-09-11T06:12:12.795Z,100.00
2022-09-11T06:14:44.447Z,100.00
2022-09-11T06:17:12.558Z,100.00
2022-09-11T06:19:40.400Z,100.00
2022-09-11T06:22:07.920Z,100.00
2022-09-11T06:24:40.025Z,100.00
2022-09-11T06:27:07.573Z,100.00
2022-09-11T06:29:39.437Z,100.00
2022-09-11T06:32:07.724Z,100.00
2022-09-11T06:34:35.665Z,100.00
2022-09-11T06:37:07.798Z,100.00
2022-09-11T06:39:35.533Z,100.00
2022-09-11T06:42:03.408Z,100.00
2022-09-11T06:44:35.063Z,100.00
2022-09-11T06:47:05.627Z,100.00
2022-09-11T06:49:35.586Z,100.00
2022-09-11T06:52:21.691Z,100.00
2022-09-11T06:55:02.159Z,100.00
2022-09-11T06:57:30.783Z,100.00
2022-09-11T06:59:58.508Z,100.00
2022-09-11T07:02:28.320Z,100.00
2022-09-11T07:04:56.047Z,100.00
2022-09-11T07:07:26.713Z,100.00
2022-09-11T07:09:54.831Z,100.00
2022-09-11T07:12:25.141Z,100.00
2022-09-11T07:14:52.877Z,100.00
2022-09-11T07:17:20.399Z,100.00
2022-09-11T07:19:52.444Z,100.00
2022-09-11T07:22:19.989Z,100.00
2022-09-11T07:24:49.409Z,100.00
2022-09-11T07:27:19.360Z,100.00
2022-09-11T07:29:47.776Z,100.00
2022-09-11T07:32:15.533Z,98.34
2022-09-11T07:34:43.716Z,94.64
2022-09-11T07:37:13.377Z,91.62
2022-09-11T07:39:41.715Z,87.34
2022-09-11T07:42:18.779Z,84.61
2022-09-11T07:44:47.289Z,81.41
2022-09-11T07:47:16.223Z,78.33
2022-09-11T07:49:48.018Z,76.08
2022-09-11T07:52:18.377Z,70.76
2022-09-11T07:54:52.144Z,69.47
2022-09-11T07:57:22.008Z,67.78
2022-09-11T07:59:51.568Z,64.50
2022-09-11T08:02:20.136Z,62.43
2022-09-11T08:04:48.030Z,63.23
2022-09-11T08:07:17.706Z,65.64
2022-09-11T08:09:45.533Z,68.44
2022-09-11T08:12:14.069Z,69.58
2022-09-11T08:14:42.023Z,70.63
2022-09-11T08:17:16.012Z,71.60
2022-09-11T08:19:43.625Z,74.25
2022-09-11T08:22:12.947Z,75.66
2022-09-11T08:24:45.939Z,78.75
2022-09-11T08:27:16.978Z,82.94
2022-09-11T08:29:45.867Z,84.42
2022-09-11T08:32:14.102Z,82.54
2022-09-11T08:34:42.206Z,79.80
2022-09-11T08:37:09.748Z,78.06
2022-09-11T08:39:38.434Z,79.49
2022-09-11T08:42:10.553Z,77.41
2022-09-11T08:44:42.458Z,77.42
2022-09-11T08:47:20.007Z,76.73
2022-09-11T08:49:54.901Z,77.03
2022-09-11T08:52:24.588Z,78.09
2022-09-11T08:54:56.053Z,80.47
2022-09-11T08:57:29.298Z,81.49
2022-09-11T09:00:06.994Z,80.33
2022-09-11T09:02:56.202Z,79.22
2022-09-11T09:05:29.273Z,72.92
2022-09-11T09:08:07.080Z,69.77
2022-09-11T09:10:40.901Z,66.92
2022-09-11T09:13:17.462Z,63.16
2022-09-11T09:15:48.926Z,60.95
2022-09-11T09:18:19.109Z,61.46
2022-09-11T09:20:51.377Z,60.06
2022-09-11T09:23:19.859Z,59.60
2022-09-11T09:25:48.990Z,57.83
2022-09-11T09:28:20.976Z,54.47
2022-09-11T09:30:51.885Z,56.07
2022-09-11T09:33:28.253Z,57.35
2022-09-11T09:35:57.053Z,57.63
2022-09-11T09:38:28.467Z,58.42
2022-09-11T09:41:03.391Z,59.77
2022-09-11T09:43:38.378Z,61.28
2022-09-11T09:46:11.408Z,62.80
2022-09-11T09:48:40.590Z,64.17
2022-09-11T09:51:12.561Z,64.92
2022-09-11T09:53:41.931Z,67.31
2022-09-11T09:56:14.110Z,66.94
2022-09-11T09:58:49.961Z,63.73
2022-09-11T10:01:47.792Z,61.81
2022-09-11T10:04:17.175Z,59.35
2022-09-11T10:06:45.964Z,56.72
2022-09-11T10:09:31.370Z,57.23
2022-09-11T10:12:02.629Z,55.43
2022-09-11T10:17:22.303Z,54.06
2022-09-11T10:19:50.913Z,53.13
2022-09-11T10:22:23.690Z,51.88
2022-09-11T10:24:53.641Z,51.08
2022-09-11T10:27:22.998Z,51.31
2022-09-11T10:29:54.342Z,51.25
2022-09-11T10:32:24.544Z,51.24
2022-09-11T10:34:53.276Z,49.40
2022-09-11T10:37:25.435Z,47.47
2022-09-11T10:39:54.014Z,48.74
2022-09-11T10:42:23.454Z,46.79
2022-09-11T10:44:52.348Z,46.89
2022-09-11T10:47:25.005Z,46.06
2022-09-11T10:50:11.911Z,45.57
2022-09-11T10:52:47.596Z,45.29
2022-09-11T10:55:17.439Z,45.44
2022-09-11T10:57:46.474Z,45.62
2022-09-11T11:00:17.058Z,44.58
2022-09-11T11:02:47.498Z,44.96
2022-09-11T11:05:20.747Z,46.54
2022-09-11T11:07:53.194Z,45.46
2022-09-11T11:10:25.994Z,43.36
2022-09-11T11:13:01.816Z,45.81
2022-09-11T11:15:38.670Z,46.62
2022-09-11T11:18:23.555Z,46.36
2022-09-11T11:21:00.065Z,45.70
2022-09-11T11:23:44.815Z,46.63
2022-09-11T11:26:17.814Z,46.41
2022-09-11T11:29:01.435Z,45.71
2022-09-11T11:31:40.330Z,46.74
2022-09-11T11:34:29.227Z,46.85
2022-09-11T11:37:02.144Z,46.27
2022-09-11T11:39:33.070Z,45.78
2022-09-11T11:42:08.097Z,44.40
2022-09-11T11:44:40.821Z,43.66
2022-09-11T11:47:10.792Z,44.53
2022-09-11T11:49:48.894Z,42.69
2022-09-11T11:52:24.981Z,45.58
2022-09-11T11:54:55.641Z,45.81
2022-09-11T11:57:26.596Z,46.26
2022-09-11T11:59:57.122Z,47.75
2022-09-11T12:02:27.970Z,46.41
2022-09-11T12:04:58.434Z,46.92
2022-09-11T12:07:28.258Z,47.16
2022-09-11T12:09:57.409Z,46.27
2022-09-11T12:12:26.528Z,47.21
2022-09-11T12:14:55.184Z,47.72
2022-09-11T12:17:26.349Z,47.08
2022-09-11T12:20:12.294Z,48.44
2022-09-11T12:22:42.310Z,49.72
2022-09-11T12:25:24.719Z,48.49
2022-09-11T12:27:53.594Z,46.51
2022-09-11T12:30:22.575Z,47.94
2022-09-11T12:32:51.218Z,50.65
2022-09-11T12:35:21.238Z,50.36
2022-09-11T12:37:54.322Z,49.66
2022-09-11T12:40:25.096Z,47.63
2022-09-11T12:43:00.933Z,50.29
2022-09-11T12:45:32.955Z,50.87
2022-09-11T12:48:07.861Z,49.92
2022-09-11T12:50:35.902Z,49.54
2022-09-11T12:53:05.648Z,50.29
2022-09-11T12:55:35.209Z,50.97
2022-09-11T12:58:04.558Z,50.06
2022-09-11T13:00:35.411Z,49.87
2022-09-11T13:03:04.291Z,50.07
2022-09-11T13:05:34.519Z,50.04
2022-09-11T13:08:05.212Z,51.58
2022-09-11T13:10:35.214Z,51.74
2022-09-11T13:13:28.287Z,51.36
2022-09-11T13:15:57.948Z,53.51
2022-09-11T13:18:29.821Z,54.30
2022-09-11T13:20:59.398Z,55.11
2022-09-11T13:23:27.413Z,54.33
2022-09-11T13:25:58.134Z,55.63
2022-09-11T13:28:27.749Z,55.90
2022-09-11T13:30:57.904Z,56.36
2022-09-11T13:33:29.035Z,55.76
2022-09-11T13:35:57.591Z,55.17
2022-09-11T13:38:28.381Z,54.65
2022-09-11T13:40:58.560Z,56.29
2022-09-11T13:43:30.643Z,58.15
2022-09-11T13:46:11.058Z,57.07
2022-09-11T13:48:39.196Z,57.42
2022-09-11T13:51:06.955Z,57.25
2022-09-11T13:53:36.408Z,57.47
2022-09-11T13:56:05.359Z,57.30
2022-09-11T13:58:35.789Z,57.28
2022-09-11T14:01:11.406Z,56.47
2022-09-11T14:03:39.895Z,57.33
2022-09-11T14:06:10.877Z,57.47
2022-09-11T14:08:40.246Z,58.14
2022-09-11T14:11:11.645Z,58.46
2022-09-11T14:13:42.933Z,58.31
2022-09-11T14:16:18.947Z,58.38
2022-09-11T14:18:48.202Z,58.98
2022-09-11T14:21:16.891Z,59.00
2022-09-11T14:23:45.624Z,58.61
2022-09-11T14:26:16.122Z,59.18
2022-09-11T14:28:50.344Z,59.10
2022-09-11T14:31:28.183Z,59.13
2022-09-11T14:34:03.780Z,60.81
2022-09-11T14:36:31.811Z,60.69
2022-09-11T14:38:59.421Z,61.02
2022-09-11T14:41:28.302Z,62.03
2022-09-11T14:43:56.490Z,61.75
2022-09-11T14:46:24.005Z,61.71
2022-09-11T14:48:51.598Z,61.49
2022-09-11T14:51:20.725Z,62.16
2022-09-11T14:53:48.247Z,63.26
2022-09-11T14:56:15.824Z,63.90
2022-09-11T14:58:44.706Z,65.65
2022-09-11T15:01:13.517Z,66.08
2022-09-11T15:03:41.150Z,65.89
2022-09-11T15:06:20.485Z,66.73
2022-09-11T15:08:48.234Z,66.30
2022-09-11T15:11:16.350Z,68.03
2022-09-11T15:14:11.007Z,68.45
2022-09-11T15:16:33.673Z,68.25
2022-09-11T15:19:01.239Z,66.43
2022-09-11T15:21:28.994Z,67.23
2022-09-11T15:23:56.526Z,67.76
2022-09-11T15:26:24.033Z,66.94
2022-09-11T15:28:53.311Z,65.56
2022-09-11T15:31:21.005Z,64.55
2022-09-11T15:33:50.793Z,65.48
2022-09-11T15:36:18.475Z,65.93
2022-09-11T15:38:51.442Z,65.49
2022-09-11T15:41:21.875Z,66.13
2022-09-11T15:43:50.508Z,66.81
2022-09-11T15:46:21.049Z,65.86
2022-09-11T15:48:49.273Z,65.14
2022-09-11T15:51:18.037Z,65.75
2022-09-11T15:53:45.595Z,66.58
2022-09-11T15:56:15.212Z,67.09
2022-09-11T15:58:44.421Z,67.94
2022-09-11T16:01:17.654Z,68.04
2022-09-11T16:03:50.218Z,68.36
2022-09-11T16:06:17.733Z,68.97
2022-09-11T16:08:45.205Z,69.06
2022-09-11T16:11:14.228Z,69.41
2022-09-11T16:13:41.791Z,70.04
2022-09-11T16:16:09.391Z,70.56
2022-09-11T16:18:38.422Z,71.31
2022-09-11T16:21:07.599Z,71.74
2022-09-11T16:23:35.750Z,72.81
2022-09-11T16:26:03.810Z,72.88
2022-09-11T16:28:31.778Z,72.90
2022-09-11T16:30:59.306Z,73.45
2022-09-11T16:33:26.857Z,73.63
2022-09-11T16:35:57.967Z,73.62
2022-09-11T16:38:27.023Z,74.36
2022-09-11T16:41:01.301Z,74.91
2022-09-11T16:43:28.865Z,74.88
2022-09-11T16:45:56.525Z,74.42
2022-09-11T16:48:25.358Z,74.17
2022-09-11T16:50:53.683Z,74.90
2022-09-11T16:53:21.726Z,75.27
2022-09-11T16:55:51.843Z,75.69
2022-09-11T16:58:19.360Z,76.46
2022-09-11T17:00:47.204Z,76.58
2022-09-11T17:03:15.057Z,77.19
2022-09-11T17:05:47.191Z,77.39
2022-09-11T17:08:14.763Z,77.67
2022-09-11T17:10:43.528Z,77.59
2022-09-11T17:13:12.664Z,77.57
2022-09-11T17:15:40.559Z,77.78
2022-09-11T17:18:08.070Z,78.02
2022-09-11T17:20:35.569Z,78.89
2022-09-11T17:23:04.093Z,79.47
2022-09-11T17:25:31.904Z,79.89
2022-09-11T17:27:59.878Z,80.31
2022-09-11T17:30:29.253Z,81.05
2022-09-11T17:32:57.313Z,81.48
2022-09-11T17:35:25.081Z,81.51
2022-09-11T17:37:52.694Z,82.31
2022-09-11T17:40:20.537Z,82.60
2022-09-11T17:42:48.665Z,82.92
2022-09-11T17:45:16.564Z,83.77
2022-09-11T17:47:45.444Z,84.20
2022-09-11T17:50:14.456Z,84.58
2022-09-11T17:52:42.207Z,84.59
2022-09-11T17:55:11.221Z,84.77
2022-09-11T17:57:42.262Z,85.00
2022-09-11T18:00:11.231Z,86.11
2022-09-11T18:02:41.853Z,86.61
2022-09-11T18:05:10.812Z,87.25
2022-09-11T18:07:39.065Z,87.60
2022-09-11T18:10:07.855Z,88.54
2022-09-11T18:12:36.114Z,88.95
2022-09-11T18:15:03.843Z,89.71
2022-09-11T18:17:31.966Z,90.67
2022-09-11T18:19:59.497Z,90.83
2022-09-11T18:22:29.762Z,91.87
2022-09-11T18:24:59.846Z,92.21
2022-09-11T18:27:27.528Z,92.90
2022-09-11T18:29:55.520Z,93.49
2022-09-11T18:32:22.978Z,94.04
2022-09-11T18:34:50.452Z,94.42
2022-09-11T18:37:18.176Z,94.72
2022-09-11T18:39:48.294Z,95.27
2022-09-11T18:42:17.983Z,95.75
2022-09-11T18:44:45.544Z,95.96
2022-09-11T18:47:13.032Z,96.34
2022-09-11T18:49:40.600Z,97.08
2022-09-11T18:52:08.762Z,97.40
2022-09-11T18:54:37.181Z,97.81
2022-09-11T18:57:06.164Z,97.96
2022-09-11T18:59:33.671Z,98.56
2022-09-11T19:02:01.354Z,98.77
2022-09-11T19:04:29.164Z,99.45
2022-09-11T19:06:56.707Z,99.66
2022-09-11T19:09:24.268Z,100.00
2022-09-11T19:11:53.858Z,100.00
2022-09-11T19:14:22.781Z,100.00
2022-09-11T19:16:50.515Z,100.00
2022-09-11T19:19:18.041Z,100.00
2022-09-11T19:21:45.538Z,100.00
2022-09-11T19:24:13.387Z,100.00
2022-09-11T19:26:42.291Z,100.00
2022-09-11T19:29:10.473Z,100.00
2022-09-11T19:31:39.780Z,100.00
2022-09-11T19:34:08.216Z,100.00
2022-09-11T19:36:36.548Z,100.00
2022-09-11T19:39:04.881Z,100.00
2022-09-11T19:41:33.661Z,100.00
2022-09-11T19:44:01.522Z,100.00
2022-09-11T19:46:29.780Z,100.00
2022-09-11T19:49:00.659Z,100.00
2022-09-11T19:51:29.392Z,100.00
2022-09-11T19:53:57.718Z,100.00
2022-09-11T19:56:25.994Z,100.00
2022-09-11T19:58:54.105Z,100.00
2022-09-11T20:01:23.696Z,100.00
2022-09-11T20:03:52.904Z,100.00
2022-09-11T20:06:22.917Z,100.00
2022-09-11T20:08:56.004Z,100.00
2022-09-11T20:11:35.786Z,100.00
2022-09-11T20:14:04.536Z,100.00
2022-09-11T20:16:32.387Z,100.00
2022-09-11T20:19:05.425Z,100.00
2022-09-11T20:21:35.359Z,100.00
2022-09-11T20:24:04.744Z,100.00
2022-09-11T20:26:32.399Z,100.00
2022-09-11T20:29:00.857Z,100.00
2022-09-11T20:31:29.794Z,100.00
2022-09-11T20:33:57.351Z,100.00
2022-09-11T20:36:27.072Z,100.00
2022-09-11T20:38:56.337Z,100.00
2022-09-11T20:41:24.840Z,100.00
2022-09-11T20:43:53.396Z,100.00
2022-09-11T20:46:21.221Z,100.00
2022-09-11T20:48:49.995Z,100.00
2022-09-11T20:51:17.612Z,100.00
2022-09-11T20:53:45.925Z,100.00
2022-09-11T20:56:15.795Z,100.00
2022-09-11T20:58:44.156Z,100.00
2022-09-11T21:01:13.058Z,100.00
2022-09-11T21:03:44.587Z,100.00
2022-09-11T21:06:12.182Z,100.00
2022-09-11T21:08:42.071Z,100.00
2022-09-11T21:11:10.003Z,100.00
2022-09-11T21:13:39.446Z,100.00
2022-09-11T21:16:08.062Z,100.00
2022-09-11T21:18:35.669Z,100.00
2022-09-11T21:21:03.168Z,100.00
2022-09-11T21:23:30.644Z,100.00
2022-09-11T21:25:58.237Z,100.00
2022-09-11T21:28:25.749Z,100.00
2022-09-11T21:30:54.608Z,100.00
2022-09-11T21:33:22.184Z,100.00
2022-09-11T21:35:53.470Z,100.00
2022-09-11T21:38:21.496Z,100.00
2022-09-11T21:40:49.025Z,100.00
2022-09-11T21:43:16.516Z,100.00
2022-09-11T21:45:44.012Z,100.00
2022-09-11T21:48:12.916Z,100.00
2022-09-11T21:50:40.455Z,100.00
2022-09-11T21:53:08.894Z,100.00
2022-09-11T21:55:37.900Z,100.00
2022-09-11T21:58:05.654Z,100.00
2022-09-11T22:00:37.471Z,100.00
2022-09-11T22:03:08.256Z,100.00
2022-09-11T22:05:39.576Z,100.00
2022-09-11T22:08:07.257Z,100.00
2022-09-11T22:10:34.746Z,100.00
2022-09-11T22:13:02.277Z,100.00
2022-09-11T22:15:29.765Z,100.00
2022-09-11T22:17:57.291Z,100.00
2022-09-11T22:20:24.859Z,100.00
2022-09-11T22:22:56.380Z,100.00
2022-09-11T22:25:23.863Z,100.00
2022-09-11T22:27:51.327Z,100.00
2022-09-11T22:30:18.872Z,100.00
2022-09-11T22:32:46.367Z,100.00
2022-09-11T22:35:14.915Z,100.00
2022-09-11T22:37:42.406Z,100.00
2022-09-11T22:40:12.567Z,100.00
2022-09-11T22:42:40.117Z,100.00
2022-09-11T22:45:08.098Z,100.00
2022-09-11T22:47:35.689Z,100.00
2022-09-11T22:50:03.337Z,100.00
2022-09-11T22:52:31.289Z,100.00
2022-09-11T22:54:58.781Z,100.00
2022-09-11T22:57:29.255Z,100.00
2022-09-11T22:59:57.018Z,100.00
2022-09-11T23:02:27.410Z,100.00
2022-09-11T23:05:08.816Z,100.00
2022-09-11T23:07:36.984Z,100.00
2022-09-11T23:10:04.608Z,100.00
2022-09-11T23:12:33.457Z,100.00
2022-09-11T23:15:02.968Z,100.00
2022-09-11T23:17:30.455Z,100.00
2022-09-11T23:19:57.974Z,100.00
2022-09-11T23:22:27.126Z,100.00
2022-09-11T23:24:54.626Z,100.00
2022-09-11T23:27:22.126Z,100.00
2022-09-11T23:29:50.977Z,100.00
2022-09-11T23:32:18.506Z,100.00
2022-09-11T23:34:45.963Z,100.00
2022-09-11T23:37:13.478Z,100.00
2022-09-11T23:39:40.979Z,100.00
2022-09-11T23:42:08.524Z,100.00
2022-09-11T23:44:36.016Z,100.00
2022-09-11T23:47:05.036Z,100.00
2022-09-11T23:49:36.129Z,100.00
2022-09-11T23:52:04.356Z,100.00
2022-09-11T23:54:31.869Z,100.00
2022-09-11T23:56:59.411Z,100.00
2022-09-11T23:59:26.925Z,100.00
